Time;durP1;ratioP1;P1;durP2;ratioP2;P2;SDS_P1;SDS_P2;PMS_P1;PMS_P2;Temp;Humidity;BMP_temperature;BMP_pressure;BME280_temperature;BME280_humidity;BME280_pressure;Samples;Min_cycle;Max_cycle;Signal;HPM_P1;HPM_P2
2022/05/15 00:01:40;;;;;;;28.60;6.15;;;;;;;13.32;74.76;102082.78;5014000;28;20377;-73
2022/05/15 00:04:06;;;;;;;29.27;5.38;;;;;;;13.20;74.70;102078.97;5014174;28;20030;-73
2022/05/15 00:06:31;;;;;;;24.30;5.53;;;;;;;13.16;75.04;102086.28;5013822;28;20124;-72
2022/05/15 00:08:58;;;;;;;26.92;5.78;;;;;;;13.14;74.95;102087.44;5013349;28;20025;-73
2022/05/15 00:11:24;;;;;;;23.35;5.05;;;;;;;13.04;76.13;102075.50;5013953;28;20026;-73
2022/05/15 00:13:50;;;;;;;29.25;5.68;;;;;;;13.17;75.62;102087.09;5013817;28;20026;-73
2022/05/15 00:16:17;;;;;;;31.17;6.10;;;;;;;12.97;76.45;102084.13;5013399;28;20405;-73
2022/05/15 00:18:43;;;;;;;30.25;6.55;;;;;;;12.84;76.05;102082.91;5013973;28;20460;-75
2022/05/15 00:21:09;;;;;;;25.83;6.60;;;;;;;13.06;75.44;102083.09;4996319;28;20112;-73
2022/05/15 00:23:35;;;;;;;21.00;5.18;;;;;;;12.99;75.04;102080.38;5014002;28;20374;-74
2022/05/15 00:26:01;;;;;;;31.25;5.40;;;;;;;12.89;76.03;102074.63;4996000;28;20030;-73
2022/05/15 00:28:26;;;;;;;29.33;5.70;;;;;;;12.85;76.01;102078.50;4996528;28;20030;-73
2022/05/15 00:30:51;;;;;;;28.15;6.20;;;;;;;12.94;75.35;102069.69;5017621;28;20392;-73
2022/05/15 00:33:18;;;;;;;22.52;4.95;;;;;;;13.01;75.00;102068.06;5000064;28;20057;-73
2022/05/15 00:35:43;;;;;;;27.35;5.20;;;;;;;13.05;75.19;102066.72;5017788;28;20026;-73
2022/05/15 00:38:10;;;;;;;27.30;5.38;;;;;;;12.75;75.51;102064.97;5016664;28;20036;-73
2022/05/15 00:40:38;;;;;;;28.05;5.45;;;;;;;12.71;75.38;102074.03;5016154;28;20033;-72
2022/05/15 00:43:04;;;;;;;27.58;5.72;;;;;;;12.83;75.61;102064.91;5000121;28;20034;-74
2022/05/15 00:45:30;;;;;;;26.58;5.63;;;;;;;12.81;75.83;102070.28;4999849;28;20040;-73
2022/05/15 00:47:55;;;;;;;28.25;5.35;;;;;;;12.72;75.24;102060.13;5017370;28;20021;-74
2022/05/15 00:50:25;;;;;;;32.38;8.75;;;;;;;12.66;75.18;102061.59;5017391;28;20017;-73
2022/05/15 00:52:55;;;;;;;23.20;5.30;;;;;;;12.73;75.01;102061.72;4999837;28;20065;-73
2022/05/15 00:55:26;;;;;;;30.98;5.85;;;;;;;12.84;74.69;102059.56;4999677;28;20030;-73
2022/05/15 00:57:59;;;;;;;27.90;5.22;;;;;;;12.62;74.82;102053.31;5017175;28;20465;-74
2022/05/15 01:00:27;;;;;;;26.27;5.40;;;;;;;12.69;75.11;102057.84;4999365;28;20025;-74
2022/05/15 01:03:12;;;;;;;30.75;5.68;;;;;;;12.68;74.58;102066.59;5017263;28;20025;-73
2022/05/15 01:05:46;;;;;;;24.63;5.75;;;;;;;12.79;74.59;102055.84;5017270;28;20034;-73
2022/05/15 01:08:12;;;;;;;24.73;5.20;;;;;;;12.69;74.33;102063.84;4999560;28;20033;-73
2022/05/15 01:10:42;;;;;;;37.65;12.90;;;;;;;12.54;74.75;102061.13;5016842;28;20029;-73
2022/05/15 01:13:10;;;;;;;32.67;9.25;;;;;;;12.53;74.52;102056.13;5000118;28;20030;-73
2022/05/15 01:15:37;;;;;;;29.05;6.18;;;;;;;12.58;74.62;102064.22;5016419;28;20077;-73
2022/05/15 01:18:04;;;;;;;26.63;5.65;;;;;;;12.56;74.89;102058.38;5015685;28;20355;-74
2022/05/15 01:20:31;;;;;;;26.17;5.35;;;;;;;12.55;74.90;102065.38;5015801;28;20022;-74
2022/05/15 01:22:58;;;;;;;31.15;5.57;;;;;;;12.39;75.37;102062.81;4997969;28;20026;-73
2022/05/15 01:25:30;;;;;;;24.85;5.18;;;;;;;12.44;75.46;102065.72;4997824;28;20022;-72
2022/05/15 01:28:11;;;;;;;26.50;5.10;;;;;;;12.43;74.97;102058.94;4998187;28;20122;-73
2022/05/15 01:30:39;;;;;;;23.25;4.80;;;;;;;12.46;75.23;102060.34;4997776;28;20368;-73
2022/05/15 01:33:05;;;;;;;22.35;4.93;;;;;;;12.48;75.03;102061.81;5015470;28;20034;-74
2022/05/15 01:35:31;;;;;;;30.17;5.63;;;;;;;12.44;74.89;102049.38;5015387;28;20034;-74
2022/05/15 01:37:56;;;;;;;25.55;4.78;;;;;;;12.37;75.00;102064.75;5015595;28;20033;-73
2022/05/15 01:40:21;;;;;;;28.67;5.13;;;;;;;12.48;74.76;102058.41;5014874;28;20060;-73
2022/05/15 01:42:47;;;;;;;31.02;5.88;;;;;;;12.27;74.95;102056.41;5015503;28;20389;-73
2022/05/15 01:45:14;;;;;;;27.35;5.28;;;;;;;12.19;75.48;102052.03;4997724;28;20037;-73
2022/05/15 01:47:40;;;;;;;25.38;4.85;;;;;;;12.23;74.98;102060.28;5015136;28;20033;-73
2022/05/15 01:50:06;;;;;;;28.02;5.65;;;;;;;12.24;75.27;102051.53;4997477;28;20036;-73
2022/05/15 01:52:33;;;;;;;25.08;5.20;;;;;;;12.34;74.51;102052.97;5014834;28;20022;-73
2022/05/15 01:54:58;;;;;;;27.70;5.25;;;;;;;12.22;75.41;102051.69;4997690;28;20064;-73
2022/05/15 01:57:24;;;;;;;33.22;5.78;;;;;;;12.36;74.89;102052.78;4997577;28;20389;-73
2022/05/15 01:59:49;;;;;;;26.08;5.05;;;;;;;12.36;74.38;102045.00;4997560;28;20075;-73
2022/05/15 02:02:14;;;;;;;22.95;5.22;;;;;;;12.19;75.79;102057.22;5014828;28;20041;-73
2022/05/15 02:04:40;;;;;;;22.45;5.18;;;;;;;12.27;75.47;102058.97;4997403;28;20488;-73
2022/05/15 02:07:06;;;;;;;28.35;5.45;;;;;;;12.23;75.19;102055.09;5015034;28;20026;-73
2022/05/15 02:09:31;;;;;;;26.38;5.30;;;;;;;12.01;75.24;102049.66;4997032;28;20366;-73
2022/05/15 02:11:56;;;;;;;22.60;4.72;;;;;;;12.08;75.88;102044.59;5015034;28;20033;-73
2022/05/15 02:14:22;;;;;;;25.52;5.30;;;;;;;11.99;75.81;102049.00;4981292;28;1055565;-74
2022/05/15 02:16:47;;;;;;;21.40;4.88;;;;;;;11.85;76.08;102039.28;5016068;28;20026;-73
2022/05/15 02:19:12;;;;;;;28.42;5.25;;;;;;;12.00;76.17;102044.63;5015678;28;20021;-74
2022/05/15 02:21:38;;;;;;;28.70;5.15;;;;;;;11.95;76.25;102040.75;5015785;28;20025;-74
2022/05/15 02:24:03;;;;;;;19.75;4.97;;;;;;;11.91;75.96;102041.25;4997870;28;20488;-74
2022/05/15 02:26:29;;;;;;;26.70;5.25;;;;;;;11.96;75.71;102038.97;5015817;28;20527;-74
2022/05/15 02:28:54;;;;;;;21.20;4.85;;;;;;;12.03;76.08;102037.34;5015707;28;20030;-72
2022/05/15 02:31:20;;;;;;;32.92;5.72;;;;;;;11.91;76.01;102034.31;5015526;28;20029;-73
2022/05/15 02:33:45;;;;;;;26.70;5.03;;;;;;;12.08;75.68;102034.25;5015341;28;20104;-75
2022/05/15 02:36:10;;;;;;;28.70;5.35;;;;;;;12.06;75.67;102036.22;4997976;28;20366;-74
2022/05/15 02:38:37;;;;;;;25.15;5.10;;;;;;;11.85;75.59;102036.69;4981473;28;20124;-73
2022/05/15 02:41:02;;;;;;;25.58;5.80;;;;;;;11.77;76.33;102036.69;5015379;28;20029;-73
2022/05/15 02:43:28;;;;;;;27.70;5.88;;;;;;;11.78;76.58;102038.34;4997888;28;20025;-73
2022/05/15 02:45:54;;;;;;;28.95;5.40;;;;;;;11.63;76.43;102033.00;5015216;28;20454;-73
2022/05/15 02:51:04;;;;;;;29.38;6.00;;;;;;;11.47;77.52;102029.44;5014653;28;20029;-73
2022/05/15 02:53:34;;;;;;;23.92;5.55;;;;;;;11.61;77.19;102027.97;5015040;28;20033;-73
2022/05/15 02:56:03;;;;;;;24.75;5.13;;;;;;;11.61;76.78;102033.16;5014915;28;20022;-73
2022/05/15 02:58:29;;;;;;;26.42;5.35;;;;;;;11.60;77.03;102022.97;5015188;28;20037;-73
2022/05/15 03:00:55;;;;;;;27.55;5.45;;;;;;;11.66;76.45;102035.28;4997636;28;20025;-73
2022/05/15 03:03:21;;;;;;;23.70;4.80;;;;;;;11.77;76.64;102031.50;5014854;28;20030;-73
2022/05/15 03:05:46;;;;;;;26.50;4.95;;;;;;;11.55;76.33;102026.03;4997241;28;20538;-73
2022/05/15 03:08:12;;;;;;;26.05;5.18;;;;;;;11.64;77.02;102019.88;4997220;28;20509;-73
2022/05/15 03:10:37;;;;;;;22.52;4.85;;;;;;;11.48;77.14;102028.50;5014747;28;20377;-72
2022/05/15 03:13:03;;;;;;;27.15;5.22;;;;;;;11.50;77.13;102030.91;5014922;28;20032;-73
2022/05/15 03:15:28;;;;;;;23.35;4.88;;;;;;;11.50;76.98;102031.69;4996970;28;20058;-73
2022/05/15 03:17:53;;;;;;;20.52;4.90;;;;;;;11.38;77.83;102025.25;5014823;28;20037;-73
2022/05/15 03:20:18;;;;;;;24.77;4.90;;;;;;;11.35;77.82;102028.16;4997291;28;20354;-73
2022/05/15 03:22:44;;;;;;;25.35;4.97;;;;;;;11.39;77.53;102024.25;4997062;28;20022;-74
2022/05/15 03:25:10;;;;;;;21.67;5.18;;;;;;;11.43;77.27;102022.97;5014573;28;20032;-72
2022/05/15 03:27:35;;;;;;;23.55;4.85;;;;;;;11.40;77.52;102017.31;5014517;28;20029;-73
2022/05/15 03:30:01;;;;;;;21.10;4.88;;;;;;;11.41;77.50;102016.34;5014780;28;20022;-73
2022/05/15 03:32:26;;;;;;;20.70;5.15;;;;;;;11.43;77.18;102017.81;4997185;28;20018;-73
2022/05/15 03:34:52;;;;;;;21.52;4.45;;;;;;;11.42;77.58;102010.19;5014434;28;20026;-74
2022/05/15 03:37:17;;;;;;;25.85;5.38;;;;;;;11.55;76.76;102007.94;5014628;28;20026;-74
2022/05/15 03:39:42;;;;;;;21.25;4.95;;;;;;;11.69;75.81;102011.63;5014545;28;20026;-73
2022/05/15 03:42:08;;;;;;;29.95;5.63;;;;;;;11.61;75.89;101999.50;5014794;28;20025;-73
2022/05/15 03:44:33;;;;;;;27.05;5.43;;;;;;;11.56;75.92;102000.97;5014305;28;20030;-73
2022/05/15 03:46:59;;;;;;;21.70;4.40;;;;;;;11.53;75.68;102008.06;5014170;28;20041;-73
2022/05/15 03:49:24;;;;;;;20.70;4.47;;;;;;;11.54;75.79;102001.13;4996688;28;20041;-74
2022/05/15 03:51:50;;;;;;;23.77;4.57;;;;;;;11.66;75.64;102002.41;5014123;28;20033;-74
2022/05/15 03:54:15;;;;;;;20.05;4.70;;;;;;;11.82;74.89;102004.16;5014268;28;20164;-72
2022/05/15 03:56:50;;;;;;;21.92;4.85;;;;;;;11.71;75.42;102007.13;5014002;28;20070;-73
2022/05/15 03:59:22;;;;;;;20.67;4.35;;;;;;;11.73;75.79;102002.56;4996654;28;20120;-74
2022/05/15 04:01:48;;;;;;;21.70;4.57;;;;;;;11.62;75.60;101998.50;4996635;28;20081;-73
2022/05/15 04:04:13;;;;;;;28.10;5.18;;;;;;;11.75;75.43;102004.00;5013680;28;20030;-74
2022/05/15 04:06:39;;;;;;;22.60;4.72;;;;;;;11.60;75.86;101997.91;5014095;28;20065;-74
2022/05/15 04:09:05;;;;;;;22.15;4.70;;;;;;;11.66;76.31;101996.44;5013812;28;20025;-74
2022/05/15 04:11:30;;;;;;;25.35;5.22;;;;;;;11.63;76.29;101989.00;4996411;28;20041;-74
2022/05/15 04:13:55;;;;;;;26.17;4.88;;;;;;;11.60;76.35;101997.09;4996311;28;20033;-74
2022/05/15 04:16:20;;;;;;;19.88;4.80;;;;;;;11.74;75.87;101996.44;4995880;28;20509;-74
2022/05/15 04:18:46;;;;;;;22.48;4.63;;;;;;;11.73;75.85;101995.59;4996144;28;20026;-73
2022/05/15 04:21:11;;;;;;;25.42;4.88;;;;;;;11.76;76.28;101994.47;5013906;28;20030;-74
2022/05/15 04:23:37;;;;;;;22.73;5.18;;;;;;;11.70;75.93;101995.13;4996224;28;20110;-74
2022/05/15 04:26:03;;;;;;;31.35;5.13;;;;;;;11.83;76.28;102005.00;4996362;28;20080;-73
2022/05/15 04:28:28;;;;;;;19.45;4.65;;;;;;;11.80;76.37;102000.94;4996278;28;20037;-74
2022/05/15 04:30:54;;;;;;;26.38;4.50;;;;;;;11.92;76.36;102001.44;5013817;28;20018;-74
2022/05/15 04:33:19;;;;;;;26.35;4.90;;;;;;;11.85;75.99;102008.19;4996151;28;20454;-74
2022/05/15 04:35:44;;;;;;;22.77;4.93;;;;;;;11.85;75.89;102003.00;4995994;28;20044;-74
2022/05/15 04:38:10;;;;;;;27.02;4.93;;;;;;;11.84;76.40;101997.03;4996212;28;20084;-74
2022/05/15 04:40:36;;;;;;;23.30;4.95;;;;;;;11.98;76.07;102005.13;4996299;28;20454;-73
2022/05/15 04:43:01;;;;;;;16.95;4.55;;;;;;;12.00;75.76;102004.00;5013707;28;20053;-74
2022/05/15 04:45:27;;;;;;;23.27;4.78;;;;;;;12.02;76.22;102003.81;5013651;28;20025;-74
2022/05/15 04:47:52;;;;;;;25.33;5.03;;;;;;;12.09;75.63;102000.41;4996003;28;20080;-73
2022/05/15 04:50:18;;;;;;;29.65;4.95;;;;;;;11.94;75.65;102004.66;5013828;28;20109;-73
2022/05/15 04:52:44;;;;;;;23.45;4.70;;;;;;;12.09;75.87;102015.16;5013219;28;20422;-73
2022/05/15 04:55:10;;;;;;;20.92;4.63;;;;;;;12.11;75.05;102015.78;4995946;28;20057;-73
2022/05/15 04:57:35;;;;;;;27.00;4.95;;;;;;;12.28;75.71;102016.53;4995667;28;20029;-73
2022/05/15 05:00:03;;;;;;;19.80;4.45;;;;;;;12.36;75.87;102017.31;5013696;28;20021;-74
2022/05/15 05:02:29;;;;;;;22.48;5.45;;;;;;;12.28;75.12;102013.94;5013800;28;20450;-74
2022/05/15 05:04:55;;;;;;;25.83;4.80;;;;;;;12.51;75.63;102030.38;4996023;28;20063;-74
2022/05/15 05:07:21;;;;;;;22.33;4.72;;;;;;;12.61;74.80;102027.59;4980068;28;20125;-74
2022/05/15 05:09:46;;;;;;;24.73;5.13;;;;;;;12.63;74.93;102028.22;4995705;28;20061;-74
2022/05/15 05:12:11;;;;;;;25.70;4.95;;;;;;;12.81;74.05;102031.38;4995832;28;20022;-73
2022/05/15 05:14:36;;;;;;;18.30;4.30;;;;;;;12.85;74.70;102030.03;5013941;28;20033;-75
2022/05/15 05:17:02;;;;;;;17.67;4.80;;;;;;;13.02;75.14;102035.94;5017246;28;20026;-76
2022/05/15 05:19:27;;;;;;;20.98;4.55;;;;;;;12.92;74.23;102032.75;5015754;28;20084;-77
2022/05/15 05:21:53;;;;;;;19.88;4.50;;;;;;;12.94;74.52;102029.97;5018749;28;20048;-77
2022/05/15 05:24:19;;;;;;;21.15;5.22;;;;;;;13.16;73.47;102036.16;5016355;28;20033;-76
2022/05/15 05:26:46;;;;;;;25.92;4.85;;;;;;;13.14;73.64;102028.53;4998566;28;20026;-76
2022/05/15 05:29:11;;;;;;;20.73;4.80;;;;;;;13.36;73.15;102026.16;5016665;28;20026;-77
2022/05/15 05:31:36;;;;;;;23.73;4.90;;;;;;;13.42;74.00;102023.66;5016811;28;20029;-76
2022/05/15 05:34:02;;;;;;;16.40;4.35;;;;;;;13.66;72.46;102024.41;5000238;28;20022;-76
2022/05/15 05:36:27;;;;;;;24.13;4.85;;;;;;;13.65;72.39;102022.81;5016700;28;20104;-76
2022/05/15 05:38:52;;;;;;;29.70;5.90;;;;;;;13.72;72.41;102016.75;4999104;28;20041;-77
2022/05/15 05:41:17;;;;;;;26.73;4.85;;;;;;;13.91;70.71;102025.00;5018634;28;20021;-76
2022/05/15 05:43:43;;;;;;;24.23;5.30;;;;;;;13.90;70.72;102023.41;5020556;28;20034;-77
2022/05/15 05:46:08;;;;;;;23.85;5.55;;;;;;;14.07;71.04;102018.81;4999209;28;20022;-76
2022/05/15 05:48:33;;;;;;;27.88;4.90;;;;;;;13.97;70.35;102017.28;5010808;28;20049;-76
2022/05/15 05:50:59;;;;;;;20.30;4.68;;;;;;;17.70;59.59;102007.34;5021760;28;20402;-77
2022/05/15 05:53:25;;;;;;;20.23;5.22;;;;;;;23.19;43.66;102013.69;4999223;28;20444;-77
2022/05/15 05:55:51;;;;;;;20.83;4.82;;;;;;;22.82;43.52;102024.69;5016607;28;20029;-77
2022/05/15 05:58:16;;;;;;;23.88;5.03;;;;;;;23.61;41.20;102024.56;5016385;28;20123;-78
2022/05/15 06:00:42;;;;;;;16.73;4.60;;;;;;;25.32;38.55;102018.84;5016411;28;20030;-78
2022/05/15 06:05:52;;;;;;;21.90;5.25;;;;;;;26.28;36.52;102022.16;5016417;28;20037;-78
2022/05/15 06:08:20;;;;;;;17.23;4.75;;;;;;;26.72;35.30;102021.66;4998806;28;20044;-78
2022/05/15 06:10:46;;;;;;;17.58;4.97;;;;;;;25.25;37.07;102020.91;5016168;28;20033;-78
2022/05/15 06:13:12;;;;;;;17.02;4.65;;;;;;;25.77;36.71;102020.09;5016058;28;20457;-78
2022/05/15 06:15:37;;;;;;;18.50;4.80;;;;;;;26.86;34.75;102017.41;4998342;28;20069;-78
2022/05/15 06:18:05;;;;;;;16.38;4.78;;;;;;;27.90;32.98;102016.88;5016097;28;20029;-78
2022/05/15 06:20:30;;;;;;;21.02;4.85;;;;;;;28.30;32.19;102018.50;5015882;28;20457;-78
2022/05/15 06:22:56;;;;;;;18.90;4.85;;;;;;;27.65;32.50;102020.44;4999309;28;20037;-77
2022/05/15 06:25:21;;;;;;;17.95;4.85;;;;;;;27.84;32.91;102008.16;4997912;28;20045;-77
2022/05/15 06:27:47;;;;;;;19.85;5.05;;;;;;;27.84;32.52;102020.66;5015644;28;20112;-78
2022/05/15 06:30:13;;;;;;;19.55;5.35;;;;;;;28.69;31.75;102014.25;5001885;28;20040;-78
2022/05/15 06:32:39;;;;;;;17.70;4.60;;;;;;;28.84;31.01;102015.97;5003579;28;20089;-78
2022/05/15 06:35:06;;;;;;;18.15;4.90;;;;;;;29.33;30.22;102013.09;4998744;28;20053;-78
2022/05/15 06:37:32;;;;;;;16.73;4.60;;;;;;;28.74;31.23;102015.00;5016336;28;20022;-77
2022/05/15 06:39:57;;;;;;;18.38;4.97;;;;;;;28.75;30.63;102027.22;5020731;28;20156;-78
2022/05/15 06:42:23;;;;;;;20.98;4.75;;;;;;;29.43;30.52;102017.50;5017403;28;20022;-78
2022/05/15 06:44:49;;;;;;;21.02;5.20;;;;;;;29.14;30.30;102018.34;5000080;28;20477;-78
2022/05/15 06:47:14;;;;;;;17.05;4.82;;;;;;;27.90;31.79;102014.22;4997857;28;20022;-78
2022/05/15 06:49:40;;;;;;;20.05;5.22;;;;;;;28.72;31.61;102016.34;5016321;28;20064;-79
2022/05/15 06:52:05;;;;;;;16.75;5.05;;;;;;;29.72;29.85;102019.31;4998176;28;20014;-77
2022/05/15 06:54:31;;;;;;;19.77;5.20;;;;;;;29.07;30.50;102012.59;5015375;28;20026;-79
2022/05/15 06:59:40;;;;;;;19.88;5.22;;;;;;;27.78;32.64;102013.75;5015750;28;20397;-77
2022/05/15 07:02:06;;;;;;;18.80;5.03;;;;;;;28.75;31.26;102008.59;4997365;28;20022;-77
2022/05/15 07:04:31;;;;;;;17.63;4.65;;;;;;;27.33;33.62;102013.63;5008909;28;20034;-78
2022/05/15 07:06:57;;;;;;;22.87;5.30;;;;;;;28.88;30.80;102014.34;5022304;28;20136;-77
2022/05/15 07:09:22;;;;;;;18.23;4.90;;;;;;;28.00;31.81;102011.53;4997449;28;20770;-78
2022/05/15 07:11:47;;;;;;;17.60;5.10;;;;;;;27.95;32.03;102008.13;5001521;28;20101;-79
2022/05/15 07:14:12;;;;;;;19.05;5.57;;;;;;;26.72;34.25;102019.00;5015581;28;20046;-78
2022/05/15 07:16:39;;;;;;;17.90;4.97;;;;;;;25.99;35.47;102008.56;4997245;28;20393;-78
2022/05/15 07:19:04;;;;;;;21.90;5.10;;;;;;;23.54;41.04;102009.97;4997554;28;20096;-78
2022/05/15 07:21:29;;;;;;;16.27;4.70;;;;;;;22.82;42.53;102016.78;5023580;28;20030;-78
2022/05/15 07:23:55;;;;;;;20.42;4.90;;;;;;;22.52;43.68;102019.69;4994875;28;20557;-80
2022/05/15 07:26:20;;;;;;;23.90;4.90;;;;;;;22.83;43.70;102017.59;5005126;28;20018;-78
2022/05/15 07:28:50;;;;;;;21.63;5.40;;;;;;;21.96;44.55;102008.91;4997384;28;20381;-77
2022/05/15 07:31:18;;;;;;;23.58;5.43;;;;;;;21.23;46.21;102012.81;4997215;28;20037;-77
2022/05/15 07:33:44;;;;;;;21.40;4.97;;;;;;;21.88;45.90;102019.78;5013953;28;20022;-77
2022/05/15 07:36:09;;;;;;;19.58;5.00;;;;;;;21.45;45.51;102009.66;5015496;28;20390;-77
2022/05/15 07:38:34;;;;;;;20.40;5.15;;;;;;;21.90;44.95;102014.31;5014363;28;20040;-77
2022/05/15 07:41:00;;;;;;;20.00;5.18;;;;;;;20.71;47.52;102021.34;4997094;28;20421;-77
2022/05/15 07:43:25;;;;;;;19.27;5.05;;;;;;;20.83;49.15;102015.28;4997649;28;20089;-77
2022/05/15 07:45:50;;;;;;;25.35;5.68;;;;;;;21.35;47.28;102007.59;5015696;28;20025;-77
2022/05/15 07:48:16;;;;;;;23.10;5.05;;;;;;;21.48;46.60;102011.84;5018837;28;20029;-76
2022/05/15 07:50:41;;;;;;;20.60;5.25;;;;;;;21.49;46.31;102016.88;5015893;28;20085;-76
2022/05/15 07:53:07;;;;;;;19.70;5.43;;;;;;;21.88;45.84;102011.09;5014312;28;20312;-77
2022/05/15 07:55:32;;;;;;;18.05;5.13;;;;;;;21.34;47.35;102008.59;4997494;28;20057;-77
2022/05/15 07:57:57;;;;;;;20.88;5.03;;;;;;;22.43;45.63;102010.59;5014978;28;20033;-77
2022/05/15 08:00:23;;;;;;;18.63;5.15;;;;;;;22.85;44.42;102015.53;4997195;28;20026;-78
2022/05/15 08:02:48;;;;;;;22.05;5.30;;;;;;;22.69;44.29;102019.72;5012979;28;20049;-77
2022/05/15 08:08:02;;;;;;;21.73;5.07;;;;;;;22.36;45.68;102010.75;5014472;28;20035;-77
2022/05/15 08:10:33;;;;;;;15.48;4.95;;;;;;;22.53;45.72;102014.19;5014098;28;20446;-76
2022/05/15 08:12:59;;;;;;;17.83;5.00;;;;;;;23.90;43.75;102005.13;5014273;28;20488;-76
2022/05/15 08:15:24;;;;;;;19.73;5.30;;;;;;;24.35;41.90;102009.31;5013231;28;20054;-76
2022/05/15 08:17:50;;;;;;;27.48;6.10;;;;;;;23.79;42.56;102001.56;5029230;28;20040;-76
2022/05/15 08:25:45;;;;;;;20.25;4.93;;;;;;;23.06;44.32;101996.34;5015231;28;20041;-77
2022/05/15 08:28:10;;;;;;;21.38;4.93;;;;;;;23.98;44.01;102000.22;5014901;28;20033;-77
2022/05/15 08:30:36;;;;;;;15.77;4.57;;;;;;;24.23;42.82;101991.00;5015249;28;20022;-77
2022/05/15 08:33:03;;;;;;;18.95;5.20;;;;;;;24.12;42.61;101990.06;5014357;28;20025;-77
2022/05/15 08:35:29;;;;;;;23.90;4.88;;;;;;;24.71;42.48;101989.31;4996755;28;20037;-77
2022/05/15 08:37:55;;;;;;;18.65;5.47;;;;;;;24.58;42.45;101982.59;5015324;28;20080;-77
2022/05/15 08:40:25;;;;;;;19.65;5.32;;;;;;;24.64;42.18;101988.72;5023858;28;20034;-77
2022/05/15 08:42:56;;;;;;;19.77;4.82;;;;;;;24.44;39.86;101984.88;5027417;28;20056;-78
2022/05/15 08:45:25;;;;;;;19.48;5.00;;;;;;;24.89;39.23;101967.78;5028522;28;20054;-78
2022/05/15 08:48:02;;;;;;;18.30;5.28;;;;;;;24.25;40.73;101970.38;5027859;28;20167;-78
2022/05/15 08:50:32;;;;;;;16.73;4.55;;;;;;;25.17;40.20;101964.00;5014751;28;20030;-79
2022/05/15 08:53:02;;;;;;;16.08;5.03;;;;;;;23.68;41.21;101971.63;5018849;28;20010;-77
2022/05/15 08:55:47;;;;;;;21.73;5.28;;;;;;;24.72;40.17;101956.56;5037276;28;20034;-77
2022/05/15 08:58:24;;;;;;;23.83;5.47;;;;;;;24.94;40.43;101964.34;5020314;28;20428;-78
2022/05/15 09:00:52;;;;;;;26.00;5.35;;;;;;;25.03;39.86;101962.03;5038359;28;20034;-77
2022/05/15 09:03:26;;;;;;;26.77;4.70;;;;;;;24.68;40.33;101966.03;5020781;28;20089;-76
2022/05/15 09:05:57;;;;;;;14.68;4.70;;;;;;;24.57;40.45;101951.13;5021421;28;20046;-78
2022/05/15 09:09:01;;;;;;;21.60;5.20;;;;;;;24.00;42.14;101950.63;5037465;28;20022;-79
2022/05/15 09:11:45;;;;;;;15.05;4.53;;;;;;;25.13;40.17;101952.31;5038764;28;20033;-80
2022/05/15 09:14:38;;;;;;;17.42;4.95;;;;;;;24.39;39.37;101957.56;5037384;28;20029;-82
2022/05/15 09:17:04;;;;;;;;;;;;;;;25.63;39.52;101950.16;5019212;28;20046;-77
2022/05/15 09:19:29;;;;;;;20.55;4.60;;;;;;;25.82;37.66;101953.97;5018566;28;19914;-82
2022/05/15 09:21:57;;;;;;;15.95;4.55;;;;;;;25.95;38.53;101965.13;5019607;28;20037;-83
2022/05/15 09:24:34;;;;;;;17.08;4.60;;;;;;;26.38;37.94;101961.19;5009228;28;20081;-77
2022/05/15 09:27:14;;;;;;;15.65;5.03;;;;;;;26.25;36.80;101961.72;5001598;28;20188;-78
2022/05/15 09:29:39;;;;;;;15.00;4.50;;;;;;;25.33;38.40;101945.56;5000401;28;20066;-78
2022/05/15 09:32:14;;;;;;;15.75;4.72;;;;;;;26.06;38.22;101953.47;5000790;28;20018;-78
2022/05/15 09:34:43;;;;;;;13.32;4.45;;;;;;;26.13;35.83;101951.41;5000061;28;20041;-79
2022/05/15 09:40:07;;;;;;;21.65;4.35;;;;;;;25.87;34.76;101947.91;4999738;28;20072;-79
2022/05/15 09:45:21;;;;;;;21.40;4.72;;;;;;;25.37;37.49;101941.34;4997707;28;20037;-79
2022/05/15 09:47:52;;;;;;;17.42;4.45;;;;;;;26.40;35.93;101939.75;4997892;28;20474;-79
2022/05/15 09:50:43;;;;;;;22.08;5.40;;;;;;;26.32;33.28;101939.19;4980283;28;20037;-78
2022/05/15 09:53:14;;;;;;;22.33;5.22;;;;;;;25.60;33.67;101938.25;4979988;28;20019;-79
2022/05/15 09:55:40;;;;;;;20.45;4.80;;;;;;;24.43;36.17;101927.00;4964777;28;20030;-79
2022/05/15 09:58:17;;;;;;;18.15;4.50;;;;;;;25.09;34.80;101913.41;4979638;28;20034;-79
2022/05/15 10:00:42;;;;;;;23.67;4.68;;;;;;;25.80;34.20;101920.84;4997191;28;20110;-79
2022/05/15 10:03:34;;;;;;;17.92;4.20;;;;;;;26.25;34.90;101929.94;4997298;28;20442;-78
2022/05/15 10:06:06;;;;;;;17.42;4.45;;;;;;;26.39;33.85;101924.91;4993872;28;20042;-78
2022/05/15 10:08:33;;;;;;;17.98;4.82;;;;;;;26.47;34.34;101924.34;4979268;28;20077;-79
2022/05/15 10:11:11;;;;;;;19.55;4.55;;;;;;;27.75;32.63;101922.13;4996523;28;20108;-79
2022/05/15 10:13:41;;;;;;;16.88;4.30;;;;;;;27.98;32.60;101911.94;4979219;28;20026;-79
2022/05/15 10:16:13;;;;;;;16.65;4.07;;;;;;;26.91;30.03;101919.28;5010691;28;20050;-79
2022/05/15 10:18:47;;;;;;;14.82;4.50;;;;;;;26.68;31.65;101925.19;5016110;28;20025;-79
2022/05/15 10:21:14;;;;;;;16.05;4.32;;;;;;;26.01;32.83;101917.22;4998712;28;20030;-79
2022/05/15 10:23:55;;;;;;;13.00;4.03;;;;;;;25.47;33.48;101909.66;5016074;28;20034;-79
2022/05/15 10:26:27;;;;;;;12.82;4.00;;;;;;;26.40;32.82;101905.28;5016129;28;20033;-78
2022/05/15 10:28:56;;;;;;;10.45;3.88;;;;;;;27.34;30.39;101908.31;4982400;28;20037;-79
2022/05/15 10:31:36;;;;;;;18.02;4.45;;;;;;;26.72;29.84;101907.66;5015048;28;20473;-78
2022/05/15 10:34:09;;;;;;;17.35;4.80;;;;;;;26.18;30.98;101905.56;5015970;28;20033;-79
2022/05/15 10:36:49;;;;;;;15.40;4.07;;;;;;;26.80;30.61;101898.38;4998419;28;20521;-79
2022/05/15 10:39:47;;;;;;;18.95;4.68;;;;;;;26.66;31.04;101890.97;4998037;28;20037;-79
2022/05/15 10:42:18;;;;;;;14.25;3.95;;;;;;;27.43;30.12;101893.38;4980726;28;20057;-79
2022/05/15 10:45:11;;;;;;;15.02;4.00;;;;;;;27.08;30.15;101883.69;5016078;28;20079;-79
2022/05/15 10:47:48;;;;;;;;;;;;;;;27.14;29.55;101880.75;5014755;28;20061;-78
2022/05/15 10:50:22;;;;;;;12.18;3.72;;;;;;;26.53;29.94;101892.31;5015606;28;19909;-78
2022/05/15 10:57:21;;;;;;;15.15;3.80;;;;;;;26.22;29.92;101885.44;4997998;28;20025;-78
2022/05/15 10:59:30;;;;;;;13.75;3.63;;;;;;;28.09;28.80;101863.75;5029303;28;20105;-79
2022/05/15 11:02:06;;;;;;;;;;;;;;;28.50;27.52;101866.03;5015774;28;20030;-78
2022/05/15 11:04:53;;;;;;;13.63;3.42;;;;;;;27.04;29.14;101862.22;5015443;28;20063;-78
2022/05/15 11:08:01;;;;;;;11.50;3.42;;;;;;;26.66;28.46;101866.31;5015529;28;20103;-76
2022/05/15 11:10:49;;;;;;;12.02;3.42;;;;;;;27.97;27.70;101876.59;5014417;28;20049;-78
2022/05/15 11:13:21;;;;;;;11.77;3.83;;;;;;;27.10;28.36;101870.94;4997057;28;20014;-78
2022/05/15 11:16:13;;;;;;;15.77;4.00;;;;;;;26.16;29.54;101863.44;4996590;28;20049;-76
2022/05/15 11:18:45;;;;;;;12.77;3.80;;;;;;;27.17;29.63;101863.53;4996024;28;20030;-77
2022/05/15 11:21:16;;;;;;;16.65;3.47;;;;;;;27.23;30.05;101857.13;4995775;28;20509;-77
2022/05/15 11:23:49;;;;;;;10.07;2.97;;;;;;;27.52;28.60;101853.78;4996609;28;20060;-77
2022/05/15 11:26:23;;;;;;;15.93;3.60;;;;;;;28.75;26.18;101857.00;5014552;28;20030;-79
2022/05/15 11:28:53;;;;;;;15.18;3.53;;;;;;;27.47;28.37;101846.63;5015414;28;20022;-79
2022/05/15 11:31:22;;;;;;;17.30;4.35;;;;;;;27.03;28.93;101843.94;4996588;28;20542;-78
2022/05/15 11:33:53;;;;;;;11.05;3.63;;;;;;;27.33;28.69;101838.47;5017231;28;20163;-76
2022/05/15 11:36:21;;;;;;;11.98;3.38;;;;;;;27.11;29.14;101843.38;5014753;28;20036;-78
2022/05/15 11:39:05;;;;;;;12.82;3.53;;;;;;;27.22;28.62;101832.47;5014799;28;20098;-78
2022/05/15 11:41:37;;;;;;;13.13;3.22;;;;;;;27.78;27.44;101827.84;4996959;28;20026;-79
2022/05/15 11:44:18;;;;;;;10.87;3.20;;;;;;;28.21;27.01;101820.84;5013789;28;20600;-78
2022/05/15 11:46:46;;;;;;;12.85;3.20;;;;;;;26.95;29.26;101827.50;5014914;28;20030;-79
2022/05/15 11:49:15;;;;;;;13.57;3.20;;;;;;;27.84;27.47;101824.09;5014746;28;20045;-79